Terminal Aerodrome Forecast
Issued by NWS Springfield, MO

Home | Current Version | Previous Version | Text Only | Print | Product List | Glossary On
Versions: 1 2 3 4 5 6 7 8 9 10 11 12 13 14 15
559
FTUS43 KSGF 240520
TAFSGF
TAF
KSGF 240520Z 2406/2506 10005KT P6SM SKC
     FM241400 14009KT P6SM SKC
     FM242000 11008KT P6SM SCT250=

USA.gov is the U.S. government's official web portal to all federal, state and local government web resources and services.